sensor_id;sensor_type;location;lat;lon;timestamp;temperature;humidity
73322;DHT22;61549;37.044;22.128;2022-08-23T00:01:27;29.10;49.30
73322;DHT22;61549;37.044;22.128;2022-08-23T00:03:55;29.10;49.40
73322;DHT22;61549;37.044;22.128;2022-08-23T00:06:22;29.00;49.10
73322;DHT22;61549;37.044;22.128;2022-08-23T00:08:49;29.00;48.90
73322;DHT22;61549;37.044;22.128;2022-08-23T00:11:29;29.00;48.90
73322;DHT22;61549;37.044;22.128;2022-08-23T00:13:57;29.00;48.80
73322;DHT22;61549;37.044;22.128;2022-08-23T00:16:24;29.00;48.80
73322;DHT22;61549;37.044;22.128;2022-08-23T00:18:50;28.90;48.90
73322;DHT22;61549;37.044;22.128;2022-08-23T00:21:16;29.00;49.00
73322;DHT22;61549;37.044;22.128;2022-08-23T00:23:42;29.00;49.00
73322;DHT22;61549;37.044;22.128;2022-08-23T00:26:07;29.00;49.00
73322;DHT22;61549;37.044;22.128;2022-08-23T00:28:33;29.00;49.00
73322;DHT22;61549;37.044;22.128;2022-08-23T00:30:59;29.00;48.90
73322;DHT22;61549;37.044;22.128;2022-08-23T00:33:25;29.00;48.90
73322;DHT22;61549;37.044;22.128;2022-08-23T00:35:51;29.00;49.00
73322;DHT22;61549;37.044;22.128;2022-08-23T00:38:17;28.90;49.10
73322;DHT22;61549;37.044;22.128;2022-08-23T00:40:49;28.90;49.30
73322;DHT22;61549;37.044;22.128;2022-08-23T00:43:18;29.00;49.50
73322;DHT22;61549;37.044;22.128;2022-08-23T00:49:20;28.90;49.40
73322;DHT22;61549;37.044;22.128;2022-08-23T00:52:09;28.80;49.30
73322;DHT22;61549;37.044;22.128;2022-08-23T00:54:39;28.80;49.00
73322;DHT22;61549;37.044;22.128;2022-08-23T00:57:09;28.70;49.00
73322;DHT22;61549;37.044;22.128;2022-08-23T00:59:36;28.70;49.40
73322;DHT22;61549;37.044;22.128;2022-08-23T01:02:03;28.70;49.30
73322;DHT22;61549;37.044;22.128;2022-08-23T01:04:33;28.70;49.00
73322;DHT22;61549;37.044;22.128;2022-08-23T01:07:03;28.70;48.80
73322;DHT22;61549;37.044;22.128;2022-08-23T01:09:31;28.70;48.80
73322;DHT22;61549;37.044;22.128;2022-08-23T01:12:13;28.70;48.70
73322;DHT22;61549;37.044;22.128;2022-08-23T01:14:50;28.70;48.90
73322;DHT22;61549;37.044;22.128;2022-08-23T01:17:23;28.70;49.00
73322;DHT22;61549;37.044;22.128;2022-08-23T01:19:54;28.70;48.60
73322;DHT22;61549;37.044;22.128;2022-08-23T01:25:09;28.70;48.20
73322;DHT22;61549;37.044;22.128;2022-08-23T01:27:37;28.60;48.30
73322;DHT22;61549;37.044;22.128;2022-08-23T01:30:06;28.60;48.80
73322;DHT22;61549;37.044;22.128;2022-08-23T01:32:39;28.60;48.90
73322;DHT22;61549;37.044;22.128;2022-08-23T01:35:08;28.60;48.40
73322;DHT22;61549;37.044;22.128;2022-08-23T01:37:34;28.60;48.20
73322;DHT22;61549;37.044;22.128;2022-08-23T01:40:00;28.50;48.10
73322;DHT22;61549;37.044;22.128;2022-08-23T01:42:26;28.60;48.20
73322;DHT22;61549;37.044;22.128;2022-08-23T01:44:53;28.60;48.30
73322;DHT22;61549;37.044;22.128;2022-08-23T01:47:19;28.60;48.70
73322;DHT22;61549;37.044;22.128;2022-08-23T01:49:44;28.60;48.70
73322;DHT22;61549;37.044;22.128;2022-08-23T01:52:10;28.60;48.60
73322;DHT22;61549;37.044;22.128;2022-08-23T01:54:36;28.60;48.50
73322;DHT22;61549;37.044;22.128;2022-08-23T01:57:04;28.60;48.50
73322;DHT22;61549;37.044;22.128;2022-08-23T01:59:30;28.60;49.00
73322;DHT22;61549;37.044;22.128;2022-08-23T02:01:56;28.60;48.50
73322;DHT22;61549;37.044;22.128;2022-08-23T02:04:22;28.60;48.60
73322;DHT22;61549;37.044;22.128;2022-08-23T02:06:47;28.50;48.70
73322;DHT22;61549;37.044;22.128;2022-08-23T02:09:13;28.50;48.80
73322;DHT22;61549;37.044;22.128;2022-08-23T02:11:41;28.50;49.00
73322;DHT22;61549;37.044;22.128;2022-08-23T02:14:15;28.50;49.20
73322;DHT22;61549;37.044;22.128;2022-08-23T02:16:44;28.40;49.30
73322;DHT22;61549;37.044;22.128;2022-08-23T02:19:12;28.40;49.60
73322;DHT22;61549;37.044;22.128;2022-08-23T02:21:39;28.50;49.90
73322;DHT22;61549;37.044;22.128;2022-08-23T02:24:11;28.40;50.00
73322;DHT22;61549;37.044;22.128;2022-08-23T02:26:40;28.40;50.20
73322;DHT22;61549;37.044;22.128;2022-08-23T02:29:07;28.40;50.40
73322;DHT22;61549;37.044;22.128;2022-08-23T02:31:33;28.40;50.50
73322;DHT22;61549;37.044;22.128;2022-08-23T02:33:59;28.40;50.60
73322;DHT22;61549;37.044;22.128;2022-08-23T02:36:27;28.30;50.70
73322;DHT22;61549;37.044;22.128;2022-08-23T02:38:54;28.30;50.70
73322;DHT22;61549;37.044;22.128;2022-08-23T02:41:21;28.30;50.90
73322;DHT22;61549;37.044;22.128;2022-08-23T02:43:50;28.30;50.90
73322;DHT22;61549;37.044;22.128;2022-08-23T02:46:17;28.30;50.70
73322;DHT22;61549;37.044;22.128;2022-08-23T02:48:43;28.20;50.60
73322;DHT22;61549;37.044;22.128;2022-08-23T02:51:09;28.20;50.60
73322;DHT22;61549;37.044;22.128;2022-08-23T02:53:35;28.10;50.50
73322;DHT22;61549;37.044;22.128;2022-08-23T02:56:02;28.10;50.60
73322;DHT22;61549;37.044;22.128;2022-08-23T02:58:27;28.10;50.50
73322;DHT22;61549;37.044;22.128;2022-08-23T03:00:53;28.10;50.60
73322;DHT22;61549;37.044;22.128;2022-08-23T03:03:20;28.10;50.60
73322;DHT22;61549;37.044;22.128;2022-08-23T03:05:47;28.20;50.70
73322;DHT22;61549;37.044;22.128;2022-08-23T03:08:13;28.10;50.50
73322;DHT22;61549;37.044;22.128;2022-08-23T03:10:43;28.10;50.50
73322;DHT22;61549;37.044;22.128;2022-08-23T03:13:09;28.10;50.80
73322;DHT22;61549;37.044;22.128;2022-08-23T03:15:37;28.00;50.90
73322;DHT22;61549;37.044;22.128;2022-08-23T03:18:04;28.00;51.10
73322;DHT22;61549;37.044;22.128;2022-08-23T03:20:30;28.00;51.00
73322;DHT22;61549;37.044;22.128;2022-08-23T03:22:56;28.00;51.00
73322;DHT22;61549;37.044;22.128;2022-08-23T03:25:22;28.00;51.00
73322;DHT22;61549;37.044;22.128;2022-08-23T03:27:48;28.00;51.20
73322;DHT22;61549;37.044;22.128;2022-08-23T03:30:14;28.00;51.30
73322;DHT22;61549;37.044;22.128;2022-08-23T03:32:40;28.00;51.20
73322;DHT22;61549;37.044;22.128;2022-08-23T03:35:06;27.90;50.90
73322;DHT22;61549;37.044;22.128;2022-08-23T03:37:32;27.90;51.00
73322;DHT22;61549;37.044;22.128;2022-08-23T03:39:58;27.80;51.10
73322;DHT22;61549;37.044;22.128;2022-08-23T03:42:26;27.80;51.40
73322;DHT22;61549;37.044;22.128;2022-08-23T03:44:53;27.80;51.70
73322;DHT22;61549;37.044;22.128;2022-08-23T03:47:18;27.70;51.80
73322;DHT22;61549;37.044;22.128;2022-08-23T03:49:44;27.70;52.00
73322;DHT22;61549;37.044;22.128;2022-08-23T03:52:10;27.70;52.20
73322;DHT22;61549;37.044;22.128;2022-08-23T03:54:37;27.70;52.20
73322;DHT22;61549;37.044;22.128;2022-08-23T03:57:06;27.70;52.20
73322;DHT22;61549;37.044;22.128;2022-08-23T03:59:36;27.70;52.20
73322;DHT22;61549;37.044;22.128;2022-08-23T04:05:08;27.60;52.40
73322;DHT22;61549;37.044;22.128;2022-08-23T04:07:36;27.60;52.60
73322;DHT22;61549;37.044;22.128;2022-08-23T04:10:04;27.60;52.40
73322;DHT22;61549;37.044;22.128;2022-08-23T04:12:31;27.50;52.60
73322;DHT22;61549;37.044;22.128;2022-08-23T04:14:57;27.50;52.80
73322;DHT22;61549;37.044;22.128;2022-08-23T04:17:23;27.50;52.70
73322;DHT22;61549;37.044;22.128;2022-08-23T04:19:49;27.50;52.60
73322;DHT22;61549;37.044;22.128;2022-08-23T04:22:17;27.50;52.60
73322;DHT22;61549;37.044;22.128;2022-08-23T04:24:44;27.60;52.70
73322;DHT22;61549;37.044;22.128;2022-08-23T04:27:11;27.60;52.80
73322;DHT22;61549;37.044;22.128;2022-08-23T04:29:38;27.60;53.10
73322;DHT22;61549;37.044;22.128;2022-08-23T04:32:05;27.60;53.30
73322;DHT22;61549;37.044;22.128;2022-08-23T04:34:32;27.70;54.10
73322;DHT22;61549;37.044;22.128;2022-08-23T04:36:59;27.70;54.20
73322;DHT22;61549;37.044;22.128;2022-08-23T04:39:25;27.80;54.60
73322;DHT22;61549;37.044;22.128;2022-08-23T04:41:51;27.80;55.10
73322;DHT22;61549;37.044;22.128;2022-08-23T04:44:35;27.80;55.40
73322;DHT22;61549;37.044;22.128;2022-08-23T04:47:01;27.80;55.70
73322;DHT22;61549;37.044;22.128;2022-08-23T04:49:27;27.90;56.00
73322;DHT22;61549;37.044;22.128;2022-08-23T04:51:53;27.90;56.30
73322;DHT22;61549;37.044;22.128;2022-08-23T04:54:20;27.90;56.70
73322;DHT22;61549;37.044;22.128;2022-08-23T04:56:46;27.90;56.90
73322;DHT22;61549;37.044;22.128;2022-08-23T04:59:12;27.90;57.20
73322;DHT22;61549;37.044;22.128;2022-08-23T05:01:38;28.00;57.20
73322;DHT22;61549;37.044;22.128;2022-08-23T05:04:04;27.90;56.90
73322;DHT22;61549;37.044;22.128;2022-08-23T05:06:30;27.90;56.80
73322;DHT22;61549;37.044;22.128;2022-08-23T05:08:56;27.90;56.80
73322;DHT22;61549;37.044;22.128;2022-08-23T05:11:23;28.00;57.00
73322;DHT22;61549;37.044;22.128;2022-08-23T05:13:49;28.00;56.20
73322;DHT22;61549;37.044;22.128;2022-08-23T05:16:15;28.10;54.90
73322;DHT22;61549;37.044;22.128;2022-08-23T05:18:41;28.10;55.50
73322;DHT22;61549;37.044;22.128;2022-08-23T05:21:12;28.20;55.20
73322;DHT22;61549;37.044;22.128;2022-08-23T05:23:38;28.20;55.70
73322;DHT22;61549;37.044;22.128;2022-08-23T05:26:04;28.40;56.20
73322;DHT22;61549;37.044;22.128;2022-08-23T05:28:33;28.40;56.10
73322;DHT22;61549;37.044;22.128;2022-08-23T05:31:07;28.50;56.60
73322;DHT22;61549;37.044;22.128;2022-08-23T05:33:34;28.60;57.30
73322;DHT22;61549;37.044;22.128;2022-08-23T05:36:01;28.60;56.80
73322;DHT22;61549;37.044;22.128;2022-08-23T05:38:27;28.70;56.10
73322;DHT22;61549;37.044;22.128;2022-08-23T05:40:55;28.70;54.30
73322;DHT22;61549;37.044;22.128;2022-08-23T05:43:23;28.80;54.10
73322;DHT22;61549;37.044;22.128;2022-08-23T05:45:59;28.80;54.70
73322;DHT22;61549;37.044;22.128;2022-08-23T05:48:25;28.80;54.60
73322;DHT22;61549;37.044;22.128;2022-08-23T05:50:51;28.80;54.30
73322;DHT22;61549;37.044;22.128;2022-08-23T05:53:17;28.80;54.00
73322;DHT22;61549;37.044;22.128;2022-08-23T05:55:42;28.90;54.00
73322;DHT22;61549;37.044;22.128;2022-08-23T05:58:08;28.90;54.10
73322;DHT22;61549;37.044;22.128;2022-08-23T06:00:34;28.90;55.10
73322;DHT22;61549;37.044;22.128;2022-08-23T06:03:02;28.90;55.00
73322;DHT22;61549;37.044;22.128;2022-08-23T06:05:28;29.00;54.70
73322;DHT22;61549;37.044;22.128;2022-08-23T06:07:58;28.90;54.30
73322;DHT22;61549;37.044;22.128;2022-08-23T06:10:24;29.00;54.00
73322;DHT22;61549;37.044;22.128;2022-08-23T06:12:50;29.00;53.90
73322;DHT22;61549;37.044;22.128;2022-08-23T06:15:16;29.10;52.90
73322;DHT22;61549;37.044;22.128;2022-08-23T06:17:42;29.10;53.80
73322;DHT22;61549;37.044;22.128;2022-08-23T06:20:08;29.10;53.80
73322;DHT22;61549;37.044;22.128;2022-08-23T06:22:34;29.30;53.40
73322;DHT22;61549;37.044;22.128;2022-08-23T06:25:00;29.40;52.90
73322;DHT22;61549;37.044;22.128;2022-08-23T06:27:27;29.40;52.10
73322;DHT22;61549;37.044;22.128;2022-08-23T06:29:53;29.40;52.10
73322;DHT22;61549;37.044;22.128;2022-08-23T06:32:19;29.50;52.10
73322;DHT22;61549;37.044;22.128;2022-08-23T06:34:45;29.60;51.10
73322;DHT22;61549;37.044;22.128;2022-08-23T06:37:13;29.70;50.60
73322;DHT22;61549;37.044;22.128;2022-08-23T06:39:39;29.80;50.80
73322;DHT22;61549;37.044;22.128;2022-08-23T06:42:09;30.00;50.50
73322;DHT22;61549;37.044;22.128;2022-08-23T06:44:36;30.20;50.50
73322;DHT22;61549;37.044;22.128;2022-08-23T06:47:03;30.50;49.80
73322;DHT22;61549;37.044;22.128;2022-08-23T06:49:29;30.60;48.80
73322;DHT22;61549;37.044;22.128;2022-08-23T06:51:58;30.80;48.10
73322;DHT22;61549;37.044;22.128;2022-08-23T06:54:31;30.80;48.10
73322;DHT22;61549;37.044;22.128;2022-08-23T06:56:58;30.90;48.10
73322;DHT22;61549;37.044;22.128;2022-08-23T06:59:24;31.10;48.50
73322;DHT22;61549;37.044;22.128;2022-08-23T07:02:05;31.10;47.90
73322;DHT22;61549;37.044;22.128;2022-08-23T07:04:35;31.20;48.10
73322;DHT22;61549;37.044;22.128;2022-08-23T07:07:02;31.30;47.90
73322;DHT22;61549;37.044;22.128;2022-08-23T07:09:30;31.40;47.80
73322;DHT22;61549;37.044;22.128;2022-08-23T07:11:56;31.60;48.30
73322;DHT22;61549;37.044;22.128;2022-08-23T07:14:23;31.70;47.70
73322;DHT22;61549;37.044;22.128;2022-08-23T07:16:53;31.60;47.70
73322;DHT22;61549;37.044;22.128;2022-08-23T07:19:21;31.60;47.00
73322;DHT22;61549;37.044;22.128;2022-08-23T07:21:48;31.80;47.20
73322;DHT22;61549;37.044;22.128;2022-08-23T07:24:15;32.00;47.40
73322;DHT22;61549;37.044;22.128;2022-08-23T07:26:42;32.00;47.30
73322;DHT22;61549;37.044;22.128;2022-08-23T07:29:09;32.10;46.30
73322;DHT22;61549;37.044;22.128;2022-08-23T07:31:43;32.10;45.70
73322;DHT22;61549;37.044;22.128;2022-08-23T07:34:10;32.20;45.60
73322;DHT22;61549;37.044;22.128;2022-08-23T07:36:37;32.20;45.30
73322;DHT22;61549;37.044;22.128;2022-08-23T07:39:06;32.10;45.60
73322;DHT22;61549;37.044;22.128;2022-08-23T07:41:34;32.20;45.50
73322;DHT22;61549;37.044;22.128;2022-08-23T07:44:01;32.10;45.30
73322;DHT22;61549;37.044;22.128;2022-08-23T07:46:28;32.00;45.60
73322;DHT22;61549;37.044;22.128;2022-08-23T07:48:56;31.90;45.60
73322;DHT22;61549;37.044;22.128;2022-08-23T07:51:27;31.90;45.40
73322;DHT22;61549;37.044;22.128;2022-08-23T07:53:57;32.00;46.30
73322;DHT22;61549;37.044;22.128;2022-08-23T07:56:23;31.90;45.90
73322;DHT22;61549;37.044;22.128;2022-08-23T07:58:49;31.80;45.40
73322;DHT22;61549;37.044;22.128;2022-08-23T08:01:24;31.70;45.70
73322;DHT22;61549;37.044;22.128;2022-08-23T08:03:52;31.80;45.80
73322;DHT22;61549;37.044;22.128;2022-08-23T08:06:32;31.80;45.50
73322;DHT22;61549;37.044;22.128;2022-08-23T08:09:03;31.90;45.80
73322;DHT22;61549;37.044;22.128;2022-08-23T08:11:31;31.90;46.10
73322;DHT22;61549;37.044;22.128;2022-08-23T08:13:58;32.10;45.70
73322;DHT22;61549;37.044;22.128;2022-08-23T08:16:30;32.10;45.70
73322;DHT22;61549;37.044;22.128;2022-08-23T08:18:59;32.20;46.20
73322;DHT22;61549;37.044;22.128;2022-08-23T08:21:26;32.30;45.90
73322;DHT22;61549;37.044;22.128;2022-08-23T08:23:53;32.30;46.00
73322;DHT22;61549;37.044;22.128;2022-08-23T08:26:19;32.30;46.60
73322;DHT22;61549;37.044;22.128;2022-08-23T08:28:45;32.30;45.50
73322;DHT22;61549;37.044;22.128;2022-08-23T08:31:11;32.30;45.80
73322;DHT22;61549;37.044;22.128;2022-08-23T08:33:38;32.30;46.50
73322;DHT22;61549;37.044;22.128;2022-08-23T08:36:05;32.30;46.20
73322;DHT22;61549;37.044;22.128;2022-08-23T08:38:32;32.40;46.60
73322;DHT22;61549;37.044;22.128;2022-08-23T08:41:43;32.50;46.30
73322;DHT22;61549;37.044;22.128;2022-08-23T08:47:18;32.50;46.30
73322;DHT22;61549;37.044;22.128;2022-08-23T08:50:01;32.40;46.20
73322;DHT22;61549;37.044;22.128;2022-08-23T08:52:41;32.30;47.60
73322;DHT22;61549;37.044;22.128;2022-08-23T08:58:00;32.30;47.60
73322;DHT22;61549;37.044;22.128;2022-08-23T09:00:33;32.30;47.80
73322;DHT22;61549;37.044;22.128;2022-08-23T09:03:00;32.10;47.50
73322;DHT22;61549;37.044;22.128;2022-08-23T09:05:35;31.90;48.60
73322;DHT22;61549;37.044;22.128;2022-08-23T09:11:46;32.00;47.40
73322;DHT22;61549;37.044;22.128;2022-08-23T09:17:29;32.10;47.50
73322;DHT22;61549;37.044;22.128;2022-08-23T09:19:58;32.00;46.00
73322;DHT22;61549;37.044;22.128;2022-08-23T09:22:35;31.90;48.50
73322;DHT22;61549;37.044;22.128;2022-08-23T09:25:04;32.00;47.20
73322;DHT22;61549;37.044;22.128;2022-08-23T09:27:30;32.00;47.30
73322;DHT22;61549;37.044;22.128;2022-08-23T09:29:59;31.90;48.50
73322;DHT22;61549;37.044;22.128;2022-08-23T09:32:27;31.90;50.00
73322;DHT22;61549;37.044;22.128;2022-08-23T09:35:16;31.90;50.20
73322;DHT22;61549;37.044;22.128;2022-08-23T09:37:58;31.90;50.40
73322;DHT22;61549;37.044;22.128;2022-08-23T09:43:16;31.80;50.10
73322;DHT22;61549;37.044;22.128;2022-08-23T09:51:24;31.50;49.70
73322;DHT22;61549;37.044;22.128;2022-08-23T09:53:50;31.60;50.70
73322;DHT22;61549;37.044;22.128;2022-08-23T09:56:25;31.70;49.50
73322;DHT22;61549;37.044;22.128;2022-08-23T09:58:52;31.80;50.10
73322;DHT22;61549;37.044;22.128;2022-08-23T10:01:22;31.70;48.80
73322;DHT22;61549;37.044;22.128;2022-08-23T10:04:22;31.50;50.30
73322;DHT22;61549;37.044;22.128;2022-08-23T10:06:49;31.20;51.30
73322;DHT22;61549;37.044;22.128;2022-08-23T10:09:28;31.20;51.40
73322;DHT22;61549;37.044;22.128;2022-08-23T10:11:57;31.10;50.30
73322;DHT22;61549;37.044;22.128;2022-08-23T10:14:24;31.20;51.80
73322;DHT22;61549;37.044;22.128;2022-08-23T10:19:33;31.50;50.00
73322;DHT22;61549;37.044;22.128;2022-08-23T10:24:46;31.40;50.70
73322;DHT22;61549;37.044;22.128;2022-08-23T10:27:21;31.20;50.90
73322;DHT22;61549;37.044;22.128;2022-08-23T10:30:12;31.40;51.10
73322;DHT22;61549;37.044;22.128;2022-08-23T10:33:14;31.40;49.20
73322;DHT22;61549;37.044;22.128;2022-08-23T10:38:32;31.90;46.60
73322;DHT22;61549;37.044;22.128;2022-08-23T10:46:21;32.50;44.50
73322;DHT22;61549;37.044;22.128;2022-08-23T10:48:57;32.50;44.00
73322;DHT22;61549;37.044;22.128;2022-08-23T10:51:28;32.70;42.50
73322;DHT22;61549;37.044;22.128;2022-08-23T10:54:06;32.80;42.00
73322;DHT22;61549;37.044;22.128;2022-08-23T10:56:33;32.90;42.90
73322;DHT22;61549;37.044;22.128;2022-08-23T10:59:18;33.10;42.90
73322;DHT22;61549;37.044;22.128;2022-08-23T11:02:07;33.10;42.30
73322;DHT22;61549;37.044;22.128;2022-08-23T11:05:16;33.00;42.90
73322;DHT22;61549;37.044;22.128;2022-08-23T11:07:58;33.00;42.80
73322;DHT22;61549;37.044;22.128;2022-08-23T11:15:54;33.50;43.70
73322;DHT22;61549;37.044;22.128;2022-08-23T11:31:58;33.20;43.20
73322;DHT22;61549;37.044;22.128;2022-08-23T11:34:30;33.10;44.20
73322;DHT22;61549;37.044;22.128;2022-08-23T11:40:09;32.60;44.60
73322;DHT22;61549;37.044;22.128;2022-08-23T11:45:19;32.40;45.30
73322;DHT22;61549;37.044;22.128;2022-08-23T11:47:46;32.40;45.80
73322;DHT22;61549;37.044;22.128;2022-08-23T11:50:24;32.30;46.30
73322;DHT22;61549;37.044;22.128;2022-08-23T11:53:25;32.40;46.20
73322;DHT22;61549;37.044;22.128;2022-08-23T12:01:48;32.70;44.80
73322;DHT22;61549;37.044;22.128;2022-08-23T12:04:34;32.70;45.30
73322;DHT22;61549;37.044;22.128;2022-08-23T12:07:04;32.70;45.40
73322;DHT22;61549;37.044;22.128;2022-08-23T12:09:50;32.80;45.20
73322;DHT22;61549;37.044;22.128;2022-08-23T12:12:36;32.90;44.60
73322;DHT22;61549;37.044;22.128;2022-08-23T12:15:07;32.80;45.60
73322;DHT22;61549;37.044;22.128;2022-08-23T12:20:19;32.90;43.50
73322;DHT22;61549;37.044;22.128;2022-08-23T12:23:11;32.70;45.20
73322;DHT22;61549;37.044;22.128;2022-08-23T12:25:42;32.70;45.20
73322;DHT22;61549;37.044;22.128;2022-08-23T12:31:02;32.60;44.40
73322;DHT22;61549;37.044;22.128;2022-08-23T12:39:23;32.40;46.80
73322;DHT22;61549;37.044;22.128;2022-08-23T12:42:23;32.40;47.10
73322;DHT22;61549;37.044;22.128;2022-08-23T12:44:56;32.50;46.50
73322;DHT22;61549;37.044;22.128;2022-08-23T12:47:23;32.40;46.50
73322;DHT22;61549;37.044;22.128;2022-08-23T12:50:04;32.50;46.20
73322;DHT22;61549;37.044;22.128;2022-08-23T12:52:33;32.60;46.00
73322;DHT22;61549;37.044;22.128;2022-08-23T12:55:00;32.60;46.40
73322;DHT22;61549;37.044;22.128;2022-08-23T12:57:33;32.70;46.00
73322;DHT22;61549;37.044;22.128;2022-08-23T13:02:42;32.60;45.50
73322;DHT22;61549;37.044;22.128;2022-08-23T13:08:11;32.50;46.60
73322;DHT22;61549;37.044;22.128;2022-08-23T13:10:42;32.50;45.10
73322;DHT22;61549;37.044;22.128;2022-08-23T13:13:13;32.50;43.70
73322;DHT22;61549;37.044;22.128;2022-08-23T13:15:44;32.60;42.40
73322;DHT22;61549;37.044;22.128;2022-08-23T13:18:39;32.50;42.60
73322;DHT22;61549;37.044;22.128;2022-08-23T13:21:30;32.60;42.70
73322;DHT22;61549;37.044;22.128;2022-08-23T13:24:00;32.50;43.00
73322;DHT22;61549;37.044;22.128;2022-08-23T13:29:09;32.50;43.10
73322;DHT22;61549;37.044;22.128;2022-08-23T13:31:57;32.40;42.40
73322;DHT22;61549;37.044;22.128;2022-08-23T13:34:40;32.30;42.00
73322;DHT22;61549;37.044;22.128;2022-08-23T13:39:48;32.30;42.30
73322;DHT22;61549;37.044;22.128;2022-08-23T13:42:23;32.30;42.40
73322;DHT22;61549;37.044;22.128;2022-08-23T13:44:50;32.20;42.20
73322;DHT22;61549;37.044;22.128;2022-08-23T13:47:33;32.00;39.40
73322;DHT22;61549;37.044;22.128;2022-08-23T13:50:01;31.80;39.60
73322;DHT22;61549;37.044;22.128;2022-08-23T13:52:34;31.60;41.20
73322;DHT22;61549;37.044;22.128;2022-08-23T13:55:01;31.10;42.10
73322;DHT22;61549;37.044;22.128;2022-08-23T13:57:27;30.60;44.10
73322;DHT22;61549;37.044;22.128;2022-08-23T13:59:54;30.30;45.00
73322;DHT22;61549;37.044;22.128;2022-08-23T14:02:46;29.80;46.20
73322;DHT22;61549;37.044;22.128;2022-08-23T14:05:21;29.50;47.90
73322;DHT22;61549;37.044;22.128;2022-08-23T14:08:20;29.00;48.00
73322;DHT22;61549;37.044;22.128;2022-08-23T14:11:09;28.70;49.50
73322;DHT22;61549;37.044;22.128;2022-08-23T14:17:09;28.30;56.20
73322;DHT22;61549;37.044;22.128;2022-08-23T14:19:40;28.10;55.80
73322;DHT22;61549;37.044;22.128;2022-08-23T14:22:11;28.10;59.70
73322;DHT22;61549;37.044;22.128;2022-08-23T14:24:47;28.10;60.60
73322;DHT22;61549;37.044;22.128;2022-08-23T14:27:27;28.20;58.80
73322;DHT22;61549;37.044;22.128;2022-08-23T14:29:56;28.30;57.50
73322;DHT22;61549;37.044;22.128;2022-08-23T14:32:22;28.30;57.80
73322;DHT22;61549;37.044;22.128;2022-08-23T14:34:49;28.40;58.80
73322;DHT22;61549;37.044;22.128;2022-08-23T14:37:15;28.50;60.60
73322;DHT22;61549;37.044;22.128;2022-08-23T14:39:41;28.50;60.10
73322;DHT22;61549;37.044;22.128;2022-08-23T14:42:08;28.60;58.90
73322;DHT22;61549;37.044;22.128;2022-08-23T14:44:34;28.70;59.10
73322;DHT22;61549;37.044;22.128;2022-08-23T14:50:22;28.70;58.80
73322;DHT22;61549;37.044;22.128;2022-08-23T14:52:48;28.70;59.90
73322;DHT22;61549;37.044;22.128;2022-08-23T14:55:14;28.70;60.20
73322;DHT22;61549;37.044;22.128;2022-08-23T14:57:40;28.80;60.20
73322;DHT22;61549;37.044;22.128;2022-08-23T15:00:07;28.80;60.30
73322;DHT22;61549;37.044;22.128;2022-08-23T15:02:38;28.80;60.00
73322;DHT22;61549;37.044;22.128;2022-08-23T15:05:07;28.80;59.00
73322;DHT22;61549;37.044;22.128;2022-08-23T15:07:33;28.70;58.90
73322;DHT22;61549;37.044;22.128;2022-08-23T15:09:59;28.70;59.00
73322;DHT22;61549;37.044;22.128;2022-08-23T15:12:25;28.60;59.10
73322;DHT22;61549;37.044;22.128;2022-08-23T15:14:51;28.60;59.60
73322;DHT22;61549;37.044;22.128;2022-08-23T15:17:17;28.60;59.60
73322;DHT22;61549;37.044;22.128;2022-08-23T15:19:42;28.70;59.50
73322;DHT22;61549;37.044;22.128;2022-08-23T15:22:09;28.80;58.70
73322;DHT22;61549;37.044;22.128;2022-08-23T15:24:35;28.90;57.70
73322;DHT22;61549;37.044;22.128;2022-08-23T15:27:05;28.90;56.70
73322;DHT22;61549;37.044;22.128;2022-08-23T15:29:31;29.00;57.50
73322;DHT22;61549;37.044;22.128;2022-08-23T15:35:19;29.20;59.00
73322;DHT22;61549;37.044;22.128;2022-08-23T15:37:46;29.20;60.60
73322;DHT22;61549;37.044;22.128;2022-08-23T15:40:12;29.30;58.30
73322;DHT22;61549;37.044;22.128;2022-08-23T15:42:38;29.20;56.70
73322;DHT22;61549;37.044;22.128;2022-08-23T15:45:05;29.30;58.40
73322;DHT22;61549;37.044;22.128;2022-08-23T15:47:36;29.20;60.50
73322;DHT22;61549;37.044;22.128;2022-08-23T15:50:07;29.20;61.30
73322;DHT22;61549;37.044;22.128;2022-08-23T15:52:33;29.20;61.40
73322;DHT22;61549;37.044;22.128;2022-08-23T15:54:59;29.20;61.60
73322;DHT22;61549;37.044;22.128;2022-08-23T15:57:26;29.10;60.50
73322;DHT22;61549;37.044;22.128;2022-08-23T15:59:54;29.10;58.70
73322;DHT22;61549;37.044;22.128;2022-08-23T16:02:20;29.10;58.30
73322;DHT22;61549;37.044;22.128;2022-08-23T16:04:46;29.00;58.40
73322;DHT22;61549;37.044;22.128;2022-08-23T16:07:15;29.00;59.20
73322;DHT22;61549;37.044;22.128;2022-08-23T16:09:42;29.00;59.60
73322;DHT22;61549;37.044;22.128;2022-08-23T16:12:08;28.90;60.20
73322;DHT22;61549;37.044;22.128;2022-08-23T16:14:35;28.90;59.60
73322;DHT22;61549;37.044;22.128;2022-08-23T16:17:01;28.90;59.30
73322;DHT22;61549;37.044;22.128;2022-08-23T16:19:27;28.80;59.40
73322;DHT22;61549;37.044;22.128;2022-08-23T16:21:54;28.80;59.60
73322;DHT22;61549;37.044;22.128;2022-08-23T16:24:21;28.70;59.10
73322;DHT22;61549;37.044;22.128;2022-08-23T16:26:48;28.70;59.70
73322;DHT22;61549;37.044;22.128;2022-08-23T16:29:16;28.60;59.60
73322;DHT22;61549;37.044;22.128;2022-08-23T16:31:44;28.70;60.10
73322;DHT22;61549;37.044;22.128;2022-08-23T16:34:14;28.70;61.20
73322;DHT22;61549;37.044;22.128;2022-08-23T16:36:42;28.70;60.70
73322;DHT22;61549;37.044;22.128;2022-08-23T16:39:09;28.70;60.10
73322;DHT22;61549;37.044;22.128;2022-08-23T16:41:36;28.70;58.00
73322;DHT22;61549;37.044;22.128;2022-08-23T16:44:02;28.70;56.70
73322;DHT22;61549;37.044;22.128;2022-08-23T16:46:28;28.60;56.10
73322;DHT22;61549;37.044;22.128;2022-08-23T16:48:54;28.60;55.70
73322;DHT22;61549;37.044;22.128;2022-08-23T16:51:20;28.60;55.90
73322;DHT22;61549;37.044;22.128;2022-08-23T16:53:46;28.50;55.60
73322;DHT22;61549;37.044;22.128;2022-08-23T16:56:14;28.60;55.30
73322;DHT22;61549;37.044;22.128;2022-08-23T16:58:41;28.60;55.40
73322;DHT22;61549;37.044;22.128;2022-08-23T17:01:12;28.60;55.20
73322;DHT22;61549;37.044;22.128;2022-08-23T17:03:39;28.60;55.00
73322;DHT22;61549;37.044;22.128;2022-08-23T17:06:06;28.70;54.60
73322;DHT22;61549;37.044;22.128;2022-08-23T17:08:32;28.60;53.80
73322;DHT22;61549;37.044;22.128;2022-08-23T17:10:58;28.60;53.80
73322;DHT22;61549;37.044;22.128;2022-08-23T17:13:25;28.60;54.10
73322;DHT22;61549;37.044;22.128;2022-08-23T17:15:51;28.70;54.10
73322;DHT22;61549;37.044;22.128;2022-08-23T17:18:17;28.60;53.40